sensor_id;sensor_type;location;lat;lon;timestamp;P1;durP1;ratioP1;P2;durP2;ratioP2
57635;SDS011;43465;50.728;4.160;2023-02-28T00:00:50;9.20;;;6.85;;
57635;SDS011;43465;50.728;4.160;2023-02-28T00:03:15;10.00;;;6.55;;
57635;SDS011;43465;50.728;4.160;2023-02-28T00:05:41;9.93;;;5.93;;
57635;SDS011;43465;50.728;4.160;2023-02-28T00:08:07;8.20;;;6.00;;
57635;SDS011;43465;50.728;4.160;2023-02-28T00:10:33;7.47;;;5.88;;
57635;SDS011;43465;50.728;4.160;2023-02-28T00:13:03;10.95;;;6.63;;
57635;SDS011;43465;50.728;4.160;2023-02-28T00:15:30;10.85;;;6.75;;
57635;SDS011;43465;50.728;4.160;2023-02-28T00:17:56;9.82;;;6.40;;
57635;SDS011;43465;50.728;4.160;2023-02-28T00:20:22;8.75;;;6.40;;
57635;SDS011;43465;50.728;4.160;2023-02-28T00:22:50;7.90;;;5.75;;
57635;SDS011;43465;50.728;4.160;2023-02-28T00:25:26;9.40;;;5.88;;
57635;SDS011;43465;50.728;4.160;2023-02-28T00:27:51;7.18;;;5.72;;
57635;SDS011;43465;50.728;4.160;2023-02-28T00:30:19;7.93;;;5.80;;
57635;SDS011;43465;50.728;4.160;2023-02-28T00:32:46;7.78;;;6.05;;
57635;SDS011;43465;50.728;4.160;2023-02-28T00:35:12;9.23;;;6.07;;
57635;SDS011;43465;50.728;4.160;2023-02-28T00:37:38;9.35;;;6.40;;
57635;SDS011;43465;50.728;4.160;2023-02-28T00:40:04;9.23;;;6.75;;
57635;SDS011;43465;50.728;4.160;2023-02-28T00:42:31;10.38;;;7.05;;
57635;SDS011;43465;50.728;4.160;2023-02-28T00:44:57;9.85;;;6.63;;
57635;SDS011;43465;50.728;4.160;2023-02-28T00:47:23;8.75;;;6.50;;
57635;SDS011;43465;50.728;4.160;2023-02-28T00:49:49;11.60;;;6.45;;
57635;SDS011;43465;50.728;4.160;2023-02-28T00:52:14;9.18;;;6.30;;
57635;SDS011;43465;50.728;4.160;2023-02-28T00:54:40;9.15;;;6.47;;
57635;SDS011;43465;50.728;4.160;2023-02-28T00:57:06;11.27;;;6.47;;
57635;SDS011;43465;50.728;4.160;2023-02-28T00:59:31;9.27;;;6.43;;
57635;SDS011;43465;50.728;4.160;2023-02-28T01:01:57;10.85;;;6.43;;
57635;SDS011;43465;50.728;4.160;2023-02-28T01:04:23;11.48;;;6.43;;
57635;SDS011;43465;50.728;4.160;2023-02-28T01:06:48;11.25;;;6.50;;
57635;SDS011;43465;50.728;4.160;2023-02-28T01:09:14;12.18;;;6.35;;
57635;SDS011;43465;50.728;4.160;2023-02-28T01:11:40;9.13;;;6.30;;
57635;SDS011;43465;50.728;4.160;2023-02-28T01:14:09;8.68;;;6.88;;
57635;SDS011;43465;50.728;4.160;2023-02-28T01:16:38;11.10;;;6.65;;
57635;SDS011;43465;50.728;4.160;2023-02-28T01:19:03;10.25;;;6.80;;
57635;SDS011;43465;50.728;4.160;2023-02-28T01:21:29;9.38;;;6.55;;
57635;SDS011;43465;50.728;4.160;2023-02-28T01:23:56;7.85;;;6.05;;
57635;SDS011;43465;50.728;4.160;2023-02-28T01:26:22;10.70;;;6.22;;
57635;SDS011;43465;50.728;4.160;2023-02-28T01:28:48;8.20;;;6.00;;
57635;SDS011;43465;50.728;4.160;2023-02-28T01:31:15;10.48;;;6.82;;
57635;SDS011;43465;50.728;4.160;2023-02-28T01:33:41;14.18;;;6.00;;
57635;SDS011;43465;50.728;4.160;2023-02-28T01:38:37;7.35;;;6.10;;
57635;SDS011;43465;50.728;4.160;2023-02-28T01:41:04;8.10;;;5.80;;
57635;SDS011;43465;50.728;4.160;2023-02-28T01:43:32;10.00;;;6.60;;
57635;SDS011;43465;50.728;4.160;2023-02-28T01:46:07;7.80;;;5.80;;
57635;SDS011;43465;50.728;4.160;2023-02-28T01:48:34;6.20;;;5.53;;
57635;SDS011;43465;50.728;4.160;2023-02-28T01:51:13;9.98;;;6.00;;
57635;SDS011;43465;50.728;4.160;2023-02-28T01:53:44;7.32;;;5.78;;
57635;SDS011;43465;50.728;4.160;2023-02-28T01:56:14;9.05;;;6.22;;
57635;SDS011;43465;50.728;4.160;2023-02-28T01:58:48;9.40;;;6.50;;
57635;SDS011;43465;50.728;4.160;2023-02-28T02:03:48;11.73;;;6.20;;
57635;SDS011;43465;50.728;4.160;2023-02-28T02:06:20;11.23;;;6.22;;
57635;SDS011;43465;50.728;4.160;2023-02-28T02:08:47;7.75;;;6.00;;
57635;SDS011;43465;50.728;4.160;2023-02-28T02:11:13;9.70;;;6.07;;
57635;SDS011;43465;50.728;4.160;2023-02-28T02:24:59;9.30;;;6.55;;
57635;SDS011;43465;50.728;4.160;2023-02-28T02:43:19;9.48;;;6.55;;
57635;SDS011;43465;50.728;4.160;2023-02-28T02:46:17;9.43;;;7.10;;
57635;SDS011;43465;50.728;4.160;2023-02-28T02:48:46;10.07;;;6.82;;
57635;SDS011;43465;50.728;4.160;2023-02-28T02:51:15;10.15;;;7.32;;
57635;SDS011;43465;50.728;4.160;2023-02-28T02:53:51;9.32;;;7.30;;
57635;SDS011;43465;50.728;4.160;2023-02-28T02:56:30;10.38;;;7.43;;
57635;SDS011;43465;50.728;4.160;2023-02-28T02:59:00;10.55;;;7.40;;
57635;SDS011;43465;50.728;4.160;2023-02-28T03:01:29;10.95;;;7.13;;
57635;SDS011;43465;50.728;4.160;2023-02-28T03:03:57;12.52;;;7.28;;
57635;SDS011;43465;50.728;4.160;2023-02-28T03:06:28;9.32;;;6.68;;
57635;SDS011;43465;50.728;4.160;2023-02-28T03:08:53;10.75;;;7.70;;
57635;SDS011;43465;50.728;4.160;2023-02-28T03:11:19;11.35;;;7.22;;
57635;SDS011;43465;50.728;4.160;2023-02-28T03:30:10;9.35;;;7.40;;
57635;SDS011;43465;50.728;4.160;2023-02-28T03:33:04;9.23;;;6.78;;
57635;SDS011;43465;50.728;4.160;2023-02-28T03:35:42;9.23;;;7.20;;
57635;SDS011;43465;50.728;4.160;2023-02-28T03:38:24;10.90;;;7.68;;
57635;SDS011;43465;50.728;4.160;2023-02-28T03:43:49;11.63;;;7.53;;
57635;SDS011;43465;50.728;4.160;2023-02-28T03:46:19;14.55;;;7.50;;
57635;SDS011;43465;50.728;4.160;2023-02-28T03:48:51;14.07;;;8.68;;
57635;SDS011;43465;50.728;4.160;2023-02-28T03:51:22;10.88;;;7.78;;
57635;SDS011;43465;50.728;4.160;2023-02-28T03:53:52;14.70;;;8.07;;
57635;SDS011;43465;50.728;4.160;2023-02-28T03:56:26;10.20;;;7.68;;
57635;SDS011;43465;50.728;4.160;2023-02-28T03:59:00;12.02;;;7.95;;
57635;SDS011;43465;50.728;4.160;2023-02-28T04:02:03;11.75;;;8.10;;
57635;SDS011;43465;50.728;4.160;2023-02-28T04:04:28;12.10;;;8.13;;
57635;SDS011;43465;50.728;4.160;2023-02-28T04:07:00;12.43;;;8.18;;
57635;SDS011;43465;50.728;4.160;2023-02-28T04:09:29;13.93;;;8.63;;
57635;SDS011;43465;50.728;4.160;2023-02-28T04:11:54;13.98;;;8.30;;
57635;SDS011;43465;50.728;4.160;2023-02-28T04:14:23;11.82;;;7.75;;
57635;SDS011;43465;50.728;4.160;2023-02-28T04:16:48;12.93;;;8.07;;
57635;SDS011;43465;50.728;4.160;2023-02-28T04:19:16;10.10;;;7.70;;
57635;SDS011;43465;50.728;4.160;2023-02-28T04:21:43;9.40;;;7.88;;
57635;SDS011;43465;50.728;4.160;2023-02-28T04:24:11;13.55;;;8.77;;
57635;SDS011;43465;50.728;4.160;2023-02-28T04:26:42;12.10;;;8.65;;
57635;SDS011;43465;50.728;4.160;2023-02-28T04:29:13;11.38;;;9.25;;
57635;SDS011;43465;50.728;4.160;2023-02-28T04:31:46;13.15;;;9.45;;
57635;SDS011;43465;50.728;4.160;2023-02-28T04:34:12;14.23;;;10.00;;
57635;SDS011;43465;50.728;4.160;2023-02-28T04:36:38;15.32;;;10.50;;
57635;SDS011;43465;50.728;4.160;2023-02-28T04:39:04;14.02;;;10.73;;
57635;SDS011;43465;50.728;4.160;2023-02-28T04:41:29;16.35;;;10.00;;
57635;SDS011;43465;50.728;4.160;2023-02-28T04:43:55;12.63;;;9.52;;
57635;SDS011;43465;50.728;4.160;2023-02-28T04:46:22;15.15;;;9.38;;
57635;SDS011;43465;50.728;4.160;2023-02-28T04:48:48;11.52;;;9.10;;
57635;SDS011;43465;50.728;4.160;2023-02-28T04:51:15;14.63;;;9.30;;
57635;SDS011;43465;50.728;4.160;2023-02-28T04:53:42;14.82;;;9.75;;
57635;SDS011;43465;50.728;4.160;2023-02-28T04:56:09;14.55;;;9.63;;
57635;SDS011;43465;50.728;4.160;2023-02-28T04:58:37;14.23;;;9.70;;
57635;SDS011;43465;50.728;4.160;2023-02-28T05:01:07;11.43;;;9.32;;
57635;SDS011;43465;50.728;4.160;2023-02-28T05:06:12;14.80;;;10.50;;
57635;SDS011;43465;50.728;4.160;2023-02-28T05:08:38;13.52;;;10.15;;
57635;SDS011;43465;50.728;4.160;2023-02-28T05:11:05;17.67;;;12.10;;
57635;SDS011;43465;50.728;4.160;2023-02-28T05:13:33;18.30;;;12.50;;
57635;SDS011;43465;50.728;4.160;2023-02-28T05:16:00;22.52;;;14.60;;
57635;SDS011;43465;50.728;4.160;2023-02-28T05:18:26;23.00;;;14.73;;
57635;SDS011;43465;50.728;4.160;2023-02-28T05:20:51;17.88;;;12.20;;
57635;SDS011;43465;50.728;4.160;2023-02-28T05:23:17;18.05;;;12.32;;
57635;SDS011;43465;50.728;4.160;2023-02-28T05:25:45;19.90;;;12.38;;
57635;SDS011;43465;50.728;4.160;2023-02-28T05:28:11;14.73;;;10.68;;
57635;SDS011;43465;50.728;4.160;2023-02-28T05:30:37;16.17;;;10.48;;
57635;SDS011;43465;50.728;4.160;2023-02-28T05:33:02;14.65;;;10.93;;
57635;SDS011;43465;50.728;4.160;2023-02-28T05:35:31;14.20;;;10.57;;
57635;SDS011;43465;50.728;4.160;2023-02-28T05:37:57;14.77;;;10.82;;
57635;SDS011;43465;50.728;4.160;2023-02-28T05:40:22;14.77;;;10.23;;
57635;SDS011;43465;50.728;4.160;2023-02-28T05:42:49;16.42;;;10.90;;
57635;SDS011;43465;50.728;4.160;2023-02-28T05:45:15;17.73;;;10.25;;
57635;SDS011;43465;50.728;4.160;2023-02-28T05:47:42;15.88;;;10.32;;
57635;SDS011;43465;50.728;4.160;2023-02-28T05:50:08;14.10;;;10.20;;
57635;SDS011;43465;50.728;4.160;2023-02-28T05:52:35;13.40;;;10.05;;
57635;SDS011;43465;50.728;4.160;2023-02-28T05:55:01;13.90;;;10.43;;
57635;SDS011;43465;50.728;4.160;2023-02-28T05:57:27;13.38;;;10.50;;
57635;SDS011;43465;50.728;4.160;2023-02-28T05:59:52;14.20;;;10.30;;
57635;SDS011;43465;50.728;4.160;2023-02-28T06:02:18;15.15;;;10.77;;
57635;SDS011;43465;50.728;4.160;2023-02-28T06:04:44;15.82;;;10.60;;
57635;SDS011;43465;50.728;4.160;2023-02-28T06:07:10;12.27;;;10.02;;
57635;SDS011;43465;50.728;4.160;2023-02-28T06:09:36;17.48;;;10.13;;
57635;SDS011;43465;50.728;4.160;2023-02-28T06:12:03;14.07;;;9.75;;
57635;SDS011;43465;50.728;4.160;2023-02-28T06:14:30;14.65;;;9.32;;
57635;SDS011;43465;50.728;4.160;2023-02-28T06:16:57;16.83;;;11.07;;
57635;SDS011;43465;50.728;4.160;2023-02-28T06:19:24;15.32;;;10.32;;
57635;SDS011;43465;50.728;4.160;2023-02-28T06:21:54;13.98;;;10.35;;
57635;SDS011;43465;50.728;4.160;2023-02-28T06:24:22;13.52;;;10.10;;
57635;SDS011;43465;50.728;4.160;2023-02-28T06:26:49;13.63;;;10.05;;
57635;SDS011;43465;50.728;4.160;2023-02-28T06:29:15;16.75;;;10.60;;
57635;SDS011;43465;50.728;4.160;2023-02-28T06:31:44;13.77;;;10.20;;
57635;SDS011;43465;50.728;4.160;2023-02-28T06:34:11;14.30;;;9.93;;
57635;SDS011;43465;50.728;4.160;2023-02-28T06:36:38;20.92;;;13.93;;
57635;SDS011;43465;50.728;4.160;2023-02-28T06:39:04;18.77;;;12.55;;
57635;SDS011;43465;50.728;4.160;2023-02-28T06:41:31;14.38;;;10.60;;
57635;SDS011;43465;50.728;4.160;2023-02-28T06:43:56;18.70;;;13.80;;
57635;SDS011;43465;50.728;4.160;2023-02-28T06:46:23;17.70;;;11.48;;
57635;SDS011;43465;50.728;4.160;2023-02-28T06:48:48;11.20;;;9.85;;
57635;SDS011;43465;50.728;4.160;2023-02-28T06:51:15;16.05;;;10.65;;
57635;SDS011;43465;50.728;4.160;2023-02-28T06:53:45;15.57;;;11.27;;
57635;SDS011;43465;50.728;4.160;2023-02-28T06:56:11;28.17;;;18.02;;
57635;SDS011;43465;50.728;4.160;2023-02-28T06:58:39;15.02;;;10.82;;
57635;SDS011;43465;50.728;4.160;2023-02-28T07:01:05;14.82;;;11.07;;
57635;SDS011;43465;50.728;4.160;2023-02-28T07:03:32;13.45;;;9.68;;
57635;SDS011;43465;50.728;4.160;2023-02-28T07:05:59;17.05;;;11.20;;
57635;SDS011;43465;50.728;4.160;2023-02-28T07:08:24;17.60;;;11.40;;
57635;SDS011;43465;50.728;4.160;2023-02-28T07:10:52;12.60;;;9.63;;
57635;SDS011;43465;50.728;4.160;2023-02-28T07:13:19;16.70;;;9.80;;
57635;SDS011;43465;50.728;4.160;2023-02-28T07:15:52;15.23;;;10.68;;
57635;SDS011;43465;50.728;4.160;2023-02-28T07:18:22;15.50;;;10.82;;
57635;SDS011;43465;50.728;4.160;2023-02-28T07:20:48;16.40;;;10.50;;
57635;SDS011;43465;50.728;4.160;2023-02-28T07:23:14;13.90;;;9.93;;
57635;SDS011;43465;50.728;4.160;2023-02-28T07:25:40;13.77;;;9.30;;
57635;SDS011;43465;50.728;4.160;2023-02-28T07:28:06;16.92;;;10.35;;
57635;SDS011;43465;50.728;4.160;2023-02-28T07:30:32;15.88;;;9.95;;
57635;SDS011;43465;50.728;4.160;2023-02-28T07:32:57;15.73;;;10.32;;
57635;SDS011;43465;50.728;4.160;2023-02-28T07:35:23;14.52;;;9.65;;
57635;SDS011;43465;50.728;4.160;2023-02-28T07:37:49;16.58;;;10.30;;
57635;SDS011;43465;50.728;4.160;2023-02-28T07:40:14;12.80;;;9.63;;
57635;SDS011;43465;50.728;4.160;2023-02-28T07:42:41;16.17;;;10.15;;
57635;SDS011;43465;50.728;4.160;2023-02-28T07:45:07;12.52;;;9.20;;
57635;SDS011;43465;50.728;4.160;2023-02-28T07:47:36;19.63;;;9.88;;
57635;SDS011;43465;50.728;4.160;2023-02-28T07:50:03;14.68;;;8.65;;
57635;SDS011;43465;50.728;4.160;2023-02-28T07:52:29;14.43;;;9.82;;
57635;SDS011;43465;50.728;4.160;2023-02-28T07:54:55;13.10;;;9.23;;
57635;SDS011;43465;50.728;4.160;2023-02-28T07:57:21;11.07;;;9.02;;
57635;SDS011;43465;50.728;4.160;2023-02-28T07:59:47;12.57;;;8.68;;
57635;SDS011;43465;50.728;4.160;2023-02-28T08:02:16;12.70;;;9.52;;
57635;SDS011;43465;50.728;4.160;2023-02-28T08:04:43;13.02;;;8.73;;
57635;SDS011;43465;50.728;4.160;2023-02-28T08:07:09;14.85;;;9.70;;
57635;SDS011;43465;50.728;4.160;2023-02-28T08:09:38;16.05;;;11.05;;
57635;SDS011;43465;50.728;4.160;2023-02-28T08:12:04;26.08;;;15.88;;
57635;SDS011;43465;50.728;4.160;2023-02-28T08:14:30;21.13;;;13.65;;
57635;SDS011;43465;50.728;4.160;2023-02-28T08:16:56;21.17;;;14.18;;
57635;SDS011;43465;50.728;4.160;2023-02-28T08:19:22;36.45;;;19.98;;
57635;SDS011;43465;50.728;4.160;2023-02-28T08:21:47;43.97;;;20.52;;
57635;SDS011;43465;50.728;4.160;2023-02-28T08:24:13;13.57;;;9.27;;
57635;SDS011;43465;50.728;4.160;2023-02-28T08:26:39;12.48;;;8.77;;
57635;SDS011;43465;50.728;4.160;2023-02-28T08:29:04;16.63;;;9.73;;
57635;SDS011;43465;50.728;4.160;2023-02-28T08:31:30;20.23;;;13.57;;
57635;SDS011;43465;50.728;4.160;2023-02-28T08:33:55;11.52;;;8.48;;
57635;SDS011;43465;50.728;4.160;2023-02-28T08:36:23;11.43;;;7.60;;
57635;SDS011;43465;50.728;4.160;2023-02-28T08:38:50;9.13;;;6.78;;
57635;SDS011;43465;50.728;4.160;2023-02-28T08:41:15;6.90;;;4.88;;
57635;SDS011;43465;50.728;4.160;2023-02-28T08:43:41;12.80;;;5.20;;
57635;SDS011;43465;50.728;4.160;2023-02-28T08:46:07;10.07;;;7.60;;
57635;SDS011;43465;50.728;4.160;2023-02-28T08:48:36;7.00;;;5.78;;
57635;SDS011;43465;50.728;4.160;2023-02-28T08:51:05;7.38;;;5.00;;
57635;SDS011;43465;50.728;4.160;2023-02-28T08:53:34;26.08;;;16.58;;
57635;SDS011;43465;50.728;4.160;2023-02-28T08:56:14;11.00;;;7.82;;
57635;SDS011;43465;50.728;4.160;2023-02-28T08:58:42;10.65;;;8.20;;
57635;SDS011;43465;50.728;4.160;2023-02-28T09:01:09;6.18;;;5.03;;
57635;SDS011;43465;50.728;4.160;2023-02-28T09:03:37;7.20;;;5.50;;
57635;SDS011;43465;50.728;4.160;2023-02-28T09:06:03;7.13;;;5.47;;
57635;SDS011;43465;50.728;4.160;2023-02-28T09:08:30;10.18;;;4.97;;
57635;SDS011;43465;50.728;4.160;2023-02-28T09:10:56;7.45;;;5.05;;
57635;SDS011;43465;50.728;4.160;2023-02-28T09:13:23;6.90;;;5.00;;
57635;SDS011;43465;50.728;4.160;2023-02-28T09:15:50;8.77;;;5.32;;
57635;SDS011;43465;50.728;4.160;2023-02-28T09:18:15;10.15;;;4.95;;
57635;SDS011;43465;50.728;4.160;2023-02-28T09:20:41;9.38;;;6.55;;
57635;SDS011;43465;50.728;4.160;2023-02-28T09:23:09;7.03;;;4.60;;
57635;SDS011;43465;50.728;4.160;2023-02-28T09:25:35;5.97;;;4.93;;
57635;SDS011;43465;50.728;4.160;2023-02-28T09:28:01;7.90;;;4.13;;
57635;SDS011;43465;50.728;4.160;2023-02-28T09:30:27;6.30;;;4.05;;
57635;SDS011;43465;50.728;4.160;2023-02-28T09:32:53;7.25;;;4.00;;
57635;SDS011;43465;50.728;4.160;2023-02-28T09:35:23;5.05;;;3.72;;
57635;SDS011;43465;50.728;4.160;2023-02-28T09:37:50;5.75;;;4.40;;
57635;SDS011;43465;50.728;4.160;2023-02-28T09:40:17;3.45;;;3.00;;
57635;SDS011;43465;50.728;4.160;2023-02-28T09:42:47;4.32;;;3.40;;
57635;SDS011;43465;50.728;4.160;2023-02-28T09:48:10;4.15;;;3.13;;
57635;SDS011;43465;50.728;4.160;2023-02-28T09:53:51;4.45;;;3.80;;
57635;SDS011;43465;50.728;4.160;2023-02-28T09:56:20;5.97;;;3.00;;
57635;SDS011;43465;50.728;4.160;2023-02-28T09:59:02;6.65;;;2.72;;
57635;SDS011;43465;50.728;4.160;2023-02-28T10:01:37;4.18;;;3.78;;
57635;SDS011;43465;50.728;4.160;2023-02-28T10:06:50;5.35;;;3.17;;
57635;SDS011;43465;50.728;4.160;2023-02-28T10:09:17;8.75;;;4.57;;
57635;SDS011;43465;50.728;4.160;2023-02-28T10:11:45;18.17;;;11.50;;
57635;SDS011;43465;50.728;4.160;2023-02-28T10:14:16;6.53;;;4.05;;
57635;SDS011;43465;50.728;4.160;2023-02-28T10:16:46;7.38;;;3.90;;
57635;SDS011;43465;50.728;4.160;2023-02-28T10:22:19;2.20;;;2.00;;
57635;SDS011;43465;50.728;4.160;2023-02-28T10:25:19;4.45;;;2.40;;
57635;SDS011;43465;50.728;4.160;2023-02-28T10:27:48;7.47;;;5.07;;
57635;SDS011;43465;50.728;4.160;2023-02-28T10:30:15;10.18;;;6.45;;
57635;SDS011;43465;50.728;4.160;2023-02-28T10:32:43;10.68;;;4.30;;
57635;SDS011;43465;50.728;4.160;2023-02-28T10:37:50;3.75;;;3.20;;
57635;SDS011;43465;50.728;4.160;2023-02-28T10:43:01;4.00;;;3.00;;
57635;SDS011;43465;50.728;4.160;2023-02-28T10:45:29;4.97;;;2.70;;
57635;SDS011;43465;50.728;4.160;2023-02-28T10:50:44;3.92;;;3.28;;
57635;SDS011;43465;50.728;4.160;2023-02-28T11:01:19;4.47;;;3.10;;
57635;SDS011;43465;50.728;4.160;2023-02-28T11:04:46;3.42;;;2.53;;
57635;SDS011;43465;50.728;4.160;2023-02-28T11:07:05;8.10;;;5.22;;
57635;SDS011;43465;50.728;4.160;2023-02-28T11:09:38;8.82;;;5.20;;
57635;SDS011;43465;50.728;4.160;2023-02-28T11:12:07;3.60;;;2.67;;
57635;SDS011;43465;50.728;4.160;2023-02-28T11:14:53;4.38;;;3.10;;
57635;SDS011;43465;50.728;4.160;2023-02-28T11:17:26;4.00;;;3.50;;
57635;SDS011;43465;50.728;4.160;2023-02-28T11:19:58;6.40;;;4.15;;
57635;SDS011;43465;50.728;4.160;2023-02-28T11:22:32;3.65;;;3.00;;
57635;SDS011;43465;50.728;4.160;2023-02-28T11:25:23;3.15;;;2.83;;
57635;SDS011;43465;50.728;4.160;2023-02-28T11:27:54;6.28;;;2.60;;
57635;SDS011;43465;50.728;4.160;2023-02-28T11:30:26;4.65;;;2.53;;
57635;SDS011;43465;50.728;4.160;2023-02-28T11:35:23;3.60;;;2.97;;
57635;SDS011;43465;50.728;4.160;2023-02-28T11:38:01;3.10;;;2.58;;
57635;SDS011;43465;50.728;4.160;2023-02-28T11:40:31;2.55;;;2.13;;
57635;SDS011;43465;50.728;4.160;2023-02-28T11:51:27;4.57;;;2.70;;
57635;SDS011;43465;50.728;4.160;2023-02-28T11:56:53;3.70;;;2.50;;
57635;SDS011;43465;50.728;4.160;2023-02-28T12:22:10;5.63;;;3.08;;
57635;SDS011;43465;50.728;4.160;2023-02-28T12:27:52;9.05;;;4.63;;
57635;SDS011;43465;50.728;4.160;2023-02-28T12:30:22;5.82;;;4.10;;
57635;SDS011;43465;50.728;4.160;2023-02-28T12:33:01;5.18;;;3.75;;
57635;SDS011;43465;50.728;4.160;2023-02-28T12:38:29;4.25;;;3.47;;
57635;SDS011;43465;50.728;4.160;2023-02-28T12:41:04;4.47;;;3.58;;
57635;SDS011;43465;50.728;4.160;2023-02-28T12:43:37;3.28;;;2.72;;
57635;SDS011;43465;50.728;4.160;2023-02-28T12:46:25;3.08;;;2.83;;
57635;SDS011;43465;50.728;4.160;2023-02-28T12:49:16;3.40;;;3.10;;
57635;SDS011;43465;50.728;4.160;2023-02-28T12:51:46;4.70;;;3.25;;
57635;SDS011;43465;50.728;4.160;2023-02-28T12:54:18;4.95;;;3.53;;
57635;SDS011;43465;50.728;4.160;2023-02-28T12:56:54;4.32;;;2.90;;
57635;SDS011;43465;50.728;4.160;2023-02-28T12:59:25;3.33;;;3.10;;
57635;SDS011;43465;50.728;4.160;2023-02-28T13:05:29;8.18;;;2.90;;
57635;SDS011;43465;50.728;4.160;2023-02-28T13:10:44;5.05;;;3.10;;
57635;SDS011;43465;50.728;4.160;2023-02-28T13:13:16;3.45;;;2.88;;
57635;SDS011;43465;50.728;4.160;2023-02-28T13:21:06;3.08;;;2.53;;
57635;SDS011;43465;50.728;4.160;2023-02-28T13:23:41;3.05;;;2.65;;
57635;SDS011;43465;50.728;4.160;2023-02-28T13:29:20;3.05;;;2.85;;
57635;SDS011;43465;50.728;4.160;2023-02-28T13:34:36;5.95;;;3.88;;
57635;SDS011;43465;50.728;4.160;2023-02-28T13:39:51;7.80;;;4.95;;
57635;SDS011;43465;50.728;4.160;2023-02-28T14:01:24;4.57;;;4.18;;
57635;SDS011;43465;50.728;4.160;2023-02-28T14:06:52;3.95;;;3.45;;
57635;SDS011;43465;50.728;4.160;2023-02-28T14:11:53;4.68;;;3.90;;
57635;SDS011;43465;50.728;4.160;2023-02-28T14:17:04;3.70;;;3.10;;
57635;SDS011;43465;50.728;4.160;2023-02-28T14:19:34;3.63;;;3.03;;
57635;SDS011;43465;50.728;4.160;2023-02-28T14:22:13;3.22;;;2.65;;
57635;SDS011;43465;50.728;4.160;2023-02-28T14:25:09;4.03;;;2.80;;
57635;SDS011;43465;50.728;4.160;2023-02-28T14:38:50;6.50;;;4.30;;
57635;SDS011;43465;50.728;4.160;2023-02-28T14:41:23;2.97;;;2.78;;
57635;SDS011;43465;50.728;4.160;2023-02-28T14:43:54;3.60;;;3.00;;
57635;SDS011;43465;50.728;4.160;2023-02-28T14:46:22;4.53;;;2.50;;
57635;SDS011;43465;50.728;4.160;2023-02-28T14:48:52;2.90;;;2.70;;
57635;SDS011;43465;50.728;4.160;2023-02-28T14:51:19;3.30;;;2.55;;
57635;SDS011;43465;50.728;4.160;2023-02-28T14:53:51;3.58;;;3.20;;
57635;SDS011;43465;50.728;4.160;2023-02-28T14:56:32;3.30;;;3.00;;
57635;SDS011;43465;50.728;4.160;2023-02-28T14:59:03;3.65;;;2.58;;
57635;SDS011;43465;50.728;4.160;2023-02-28T15:01:30;3.25;;;2.92;;
57635;SDS011;43465;50.728;4.160;2023-02-28T15:04:03;6.05;;;4.50;;
57635;SDS011;43465;50.728;4.160;2023-02-28T15:06:31;8.32;;;5.60;;
57635;SDS011;43465;50.728;4.160;2023-02-28T15:11:54;3.20;;;2.90;;
57635;SDS011;43465;50.728;4.160;2023-02-28T15:14:20;4.72;;;2.72;;
57635;SDS011;43465;50.728;4.160;2023-02-28T15:16:51;3.70;;;2.80;;
57635;SDS011;43465;50.728;4.160;2023-02-28T15:19:26;5.13;;;3.67;;
57635;SDS011;43465;50.728;4.160;2023-02-28T15:22:06;5.30;;;2.78;;
57635;SDS011;43465;50.728;4.160;2023-02-28T15:24:38;4.47;;;2.92;;
57635;SDS011;43465;50.728;4.160;2023-02-28T15:27:15;5.60;;;2.72;;
57635;SDS011;43465;50.728;4.160;2023-02-28T15:29:59;5.00;;;3.58;;
57635;SDS011;43465;50.728;4.160;2023-02-28T15:32:34;27.38;;;13.77;;
57635;SDS011;43465;50.728;4.160;2023-02-28T15:35:20;10.73;;;6.40;;
57635;SDS011;43465;50.728;4.160;2023-02-28T15:40:49;6.85;;;4.50;;
57635;SDS011;43465;50.728;4.160;2023-02-28T15:43:30;6.45;;;3.75;;
57635;SDS011;43465;50.728;4.160;2023-02-28T15:53:30;4.50;;;4.10;;
57635;SDS011;43465;50.728;4.160;2023-02-28T15:55:59;7.80;;;3.55;;
57635;SDS011;43465;50.728;4.160;2023-02-28T15:58:30;3.57;;;3.27;;
57635;SDS011;43465;50.728;4.160;2023-02-28T16:01:01;4.65;;;3.75;;
57635;SDS011;43465;50.728;4.160;2023-02-28T16:03:43;4.28;;;3.60;;
57635;SDS011;43465;50.728;4.160;2023-02-28T16:09:00;9.07;;;5.85;;
57635;SDS011;43465;50.728;4.160;2023-02-28T16:11:26;4.45;;;4.05;;
57635;SDS011;43465;50.728;4.160;2023-02-28T16:13:52;8.38;;;6.20;;
57635;SDS011;43465;50.728;4.160;2023-02-28T16:16:20;11.98;;;6.95;;
57635;SDS011;43465;50.728;4.160;2023-02-28T16:18:47;6.60;;;4.07;;
57635;SDS011;43465;50.728;4.160;2023-02-28T16:21:13;10.77;;;5.90;;
57635;SDS011;43465;50.728;4.160;2023-02-28T16:23:39;12.63;;;8.02;;
57635;SDS011;43465;50.728;4.160;2023-02-28T16:26:05;22.63;;;10.98;;
57635;SDS011;43465;50.728;4.160;2023-02-28T16:28:32;14.70;;;10.00;;
57635;SDS011;43465;50.728;4.160;2023-02-28T16:31:00;10.88;;;7.45;;
57635;SDS011;43465;50.728;4.160;2023-02-28T16:33:33;13.57;;;7.47;;
57635;SDS011;43465;50.728;4.160;2023-02-28T16:35:59;10.90;;;7.53;;
57635;SDS011;43465;50.728;4.160;2023-02-28T16:38:25;8.15;;;5.10;;
57635;SDS011;43465;50.728;4.160;2023-02-28T16:40:51;6.00;;;3.50;;
57635;SDS011;43465;50.728;4.160;2023-02-28T16:43:22;9.23;;;5.45;;
57635;SDS011;43465;50.728;4.160;2023-02-28T16:45:53;7.13;;;5.10;;
57635;SDS011;43465;50.728;4.160;2023-02-28T16:48:28;8.05;;;6.03;;
57635;SDS011;43465;50.728;4.160;2023-02-28T16:50:55;10.30;;;7.90;;
57635;SDS011;43465;50.728;4.160;2023-02-28T16:53:21;19.15;;;12.93;;
57635;SDS011;43465;50.728;4.160;2023-02-28T16:55:46;6.40;;;5.00;;
57635;SDS011;43465;50.728;4.160;2023-02-28T16:58:15;6.85;;;5.15;;
57635;SDS011;43465;50.728;4.160;2023-02-28T17:00:42;6.68;;;5.18;;
57635;SDS011;43465;50.728;4.160;2023-02-28T17:03:22;3.80;;;3.50;;
57635;SDS011;43465;50.728;4.160;2023-02-28T17:05:50;7.13;;;4.50;;
57635;SDS011;43465;50.728;4.160;2023-02-28T17:08:15;5.90;;;5.05;;
57635;SDS011;43465;50.728;4.160;2023-02-28T17:10:41;4.65;;;3.53;;
57635;SDS011;43465;50.728;4.160;2023-02-28T17:13:07;5.68;;;4.70;;
57635;SDS011;43465;50.728;4.160;2023-02-28T17:15:35;4.20;;;3.55;;
57635;SDS011;43465;50.728;4.160;2023-02-28T17:18:02;7.95;;;5.63;;
57635;SDS011;43465;50.728;4.160;2023-02-28T17:20:29;5.43;;;4.93;;
57635;SDS011;43465;50.728;4.160;2023-02-28T17:22:55;45.35;;;25.17;;
57635;SDS011;43465;50.728;4.160;2023-02-28T17:25:21;10.10;;;6.55;;
57635;SDS011;43465;50.728;4.160;2023-02-28T17:27:48;12.27;;;10.20;;
57635;SDS011;43465;50.728;4.160;2023-02-28T17:32:40;7.43;;;4.70;;
57635;SDS011;43465;50.728;4.160;2023-02-28T17:35:06;14.27;;;11.45;;
57635;SDS011;43465;50.728;4.160;2023-02-28T17:37:32;10.35;;;9.10;;
57635;SDS011;43465;50.728;4.160;2023-02-28T17:39:58;9.15;;;6.13;;
57635;SDS011;43465;50.728;4.160;2023-02-28T17:42:24;9.52;;;6.65;;
57635;SDS011;43465;50.728;4.160;2023-02-28T17:44:50;5.72;;;4.22;;
57635;SDS011;43465;50.728;4.160;2023-02-28T17:47:15;4.47;;;4.07;;
57635;SDS011;43465;50.728;4.160;2023-02-28T17:49:41;9.23;;;4.40;;
57635;SDS011;43465;50.728;4.160;2023-02-28T17:52:07;7.80;;;5.80;;
57635;SDS011;43465;50.728;4.160;2023-02-28T17:54:33;8.93;;;5.10;;
57635;SDS011;43465;50.728;4.160;2023-02-28T17:56:58;8.82;;;5.00;;
57635;SDS011;43465;50.728;4.160;2023-02-28T17:59:25;8.50;;;6.20;;
57635;SDS011;43465;50.728;4.160;2023-02-28T18:01:50;6.55;;;4.30;;
57635;SDS011;43465;50.728;4.160;2023-02-28T18:04:16;20.25;;;11.55;;
57635;SDS011;43465;50.728;4.160;2023-02-28T18:06:44;34.25;;;22.40;;
57635;SDS011;43465;50.728;4.160;2023-02-28T18:11:41;15.45;;;11.05;;
57635;SDS011;43465;50.728;4.160;2023-02-28T18:14:10;14.98;;;11.15;;